Rosston, Texas
Current Conditions -  °F | °C
As of 10:55 AM on Thursday 30 Oct 2014 (Local Time) from KLUD Reporting Station
Clear Clear  
Wind Chill: 66°   Ceiling: Unl
Heat Index: 66°   Visibility: 10mi
Dew Point: 46°   Wind: 14mph
Humidity: 48%   Direction: 200°SSW
Pressure: 30.16"   Gusts: 18mph
Location:  33.48°N, 97.44°W
Report Text: KLUD 301555Z AUTO 20012G16KT 10SM CLR 19/08 A3016 RMK AO2 T01910077
Loading
Personal Weather Stations






























Interactive Weather Map
Tropical Storm Tracking
New forecast layout! Learn more

10-Day Weather Forecast

Advertisements
Track Severe Weather on mobile